This is the latest recevied weather packets stored in our database for station/object IK1PCD-11. If no packets are shown the sender has not sent any weather packets the latest 10 day(s).
| Time | Temp. | Humidity | Pressure | Rain* | Wind** | Luminosity | Snow |
|---|---|---|---|---|---|---|---|
| 1777578521 | 2.22° C | 69% | 1021.5 hPa | - | - | - | - |
| 1777577621 | 2.78° C | 71% | 1021.5 hPa | - | - | - | - |
| 1777576721 | 3.33° C | 68% | 1021.4 hPa | - | - | - | - |
| 1777575820 | 3.89° C | 67% | 1021.2 hPa | - | - | - | - |
| 1777574923 | 6.11° C | 60% | 1021 hPa | - | - | - | - |
| 1777573018 | 7.78° C | 58% | 1020.6 hPa | - | - | - | - |
| 1777572118 | 8.89° C | 59% | 1020.6 hPa | - | - | - | - |
| 1777571218 | 10° C | 62% | 1020.5 hPa | - | - | - | - |
| 1777570318 | 10° C | 62% | 1020.5 hPa | - | - | - | - |
| 1777569418 | 11.11° C | 59% | 1020.4 hPa | - | - | - | - |
| 1777566717 | 11.67° C | 59% | 1020.3 hPa | - | - | - | - |
| 1777565817 | 12.78° C | 59% | 1020.3 hPa | - | - | - | - |
| 1777564917 | 13.33° C | 57% | 1020.3 hPa | - | - | - | - |
| 1777564017 | 12.78° C | 59% | 1020.4 hPa | - | - | - | - |
| 1777563117 | 12.22° C | 60% | 1020.3 hPa | - | - | - | - |
| 1777562216 | 11.67° C | 65% | 1020.5 hPa | - | - | - | - |
| 1777561316 | 11.11° C | 65% | 1020.5 hPa | - | - | - | - |
| 1777560416 | 11.11° C | 63% | 1020.4 hPa | - | - | - | - |
| 1777559528 | 11.67° C | 63% | 1020.4 hPa | - | - | - | - |
| 1777558642 | 11.67° C | 63% | 1020.5 hPa | - | - | - | - |
| 1777557729 | 11.67° C | 63% | 1020.5 hPa | - | - | - | - |
| 1777556828 | 13.33° C | 59% | 1020.6 hPa | - | - | - | - |
| 1777555928 | 14.44° C | 57% | 1020.7 hPa | - | - | - | - |
| 1777552328 | 13.89° C | 59% | 1021 hPa | - | - | - | - |
| 1777551428 | 15° C | 55% | 1021 hPa | - | - | - | - |
* Rain since midnight (hover to see other rain measurements)
** Current wind speed in m/s (hover to see current wind gust speed)